createdAt,value
2018-05-06T00:00:08.218Z,13.79
2018-05-06T00:01:08.794Z,13.77
2018-05-06T00:02:09.368Z,13.77
2018-05-06T00:03:09.929Z,13.79
2018-05-06T00:04:10.476Z,13.87
2018-05-06T00:05:11.021Z,13.90
2018-05-06T00:06:11.569Z,13.87
2018-05-06T00:07:12.120Z,13.92
2018-05-06T00:08:12.660Z,13.94
2018-05-06T00:09:13.209Z,13.75
2018-05-06T00:10:13.757Z,13.75
2018-05-06T00:11:14.311Z,13.81
2018-05-06T00:12:14.863Z,13.84
2018-05-06T00:13:15.407Z,13.75
2018-05-06T00:14:15.956Z,13.81
2018-05-06T00:15:16.516Z,13.79
2018-05-06T00:16:17.057Z,13.77
2018-05-06T00:17:17.602Z,13.75
2018-05-06T00:18:18.150Z,13.71
2018-05-06T00:19:18.697Z,13.72
2018-05-06T00:20:19.256Z,13.72
2018-05-06T00:21:19.811Z,13.75
2018-05-06T00:22:20.357Z,13.69
2018-05-06T00:23:20.909Z,13.69
2018-05-06T00:24:21.454Z,13.61
2018-05-06T00:25:22.006Z,13.61
2018-05-06T00:26:22.553Z,13.63
2018-05-06T00:27:23.108Z,13.57
2018-05-06T00:28:23.658Z,13.61
2018-05-06T00:29:24.211Z,13.61
2018-05-06T00:30:24.785Z,13.59
2018-05-06T00:31:25.331Z,13.56
2018-05-06T00:32:25.875Z,13.61
2018-05-06T00:33:26.424Z,13.54
2018-05-06T00:34:26.973Z,13.59
2018-05-06T00:35:27.525Z,13.44
2018-05-06T00:36:28.079Z,13.49
2018-05-06T00:37:28.643Z,13.44
2018-05-06T00:38:29.177Z,13.46
2018-05-06T00:39:29.728Z,13.45
2018-05-06T00:40:30.275Z,13.39
2018-05-06T00:41:30.823Z,13.36
2018-05-06T00:42:31.373Z,13.31
2018-05-06T00:43:31.922Z,13.35
2018-05-06T00:44:32.471Z,13.35
2018-05-06T00:45:33.018Z,13.39
2018-05-06T00:46:33.567Z,13.46
2018-05-06T00:47:34.116Z,13.49
2018-05-06T00:48:34.666Z,13.44
2018-05-06T00:49:35.217Z,13.49
2018-05-06T00:50:35.769Z,13.45
2018-05-06T00:51:36.318Z,13.45
2018-05-06T00:52:36.863Z,13.44
2018-05-06T00:53:37.418Z,13.46
2018-05-06T00:54:37.963Z,13.42
2018-05-06T00:55:38.514Z,13.49
2018-05-06T00:56:39.065Z,13.42
2018-05-06T00:57:39.615Z,13.36
2018-05-06T00:58:40.164Z,13.31
2018-05-06T00:59:40.709Z,13.38
2018-05-06T01:00:41.257Z,13.31
2018-05-06T01:01:41.804Z,13.30
2018-05-06T01:02:42.363Z,13.20
2018-05-06T01:03:42.901Z,13.25
2018-05-06T01:04:43.447Z,13.25
2018-05-06T01:05:43.993Z,13.25
2018-05-06T01:06:44.546Z,13.25
2018-05-06T01:07:45.091Z,13.19
2018-05-06T01:08:45.640Z,13.25
2018-05-06T01:09:46.185Z,13.20
2018-05-06T01:10:46.734Z,13.19
2018-05-06T01:11:47.278Z,13.15
2018-05-06T01:12:47.821Z,13.18
2018-05-06T01:13:48.379Z,13.07
2018-05-06T01:14:48.925Z,13.08
2018-05-06T01:15:49.474Z,13.10
2018-05-06T01:16:50.018Z,13.05
2018-05-06T01:17:50.561Z,13.00
2018-05-06T01:18:51.101Z,13.00
2018-05-06T01:19:51.652Z,12.97
2018-05-06T01:20:52.200Z,13.05
2018-05-06T01:21:52.745Z,13.04
2018-05-06T01:22:53.285Z,13.00
2018-05-06T01:23:53.831Z,13.04
2018-05-06T01:24:54.381Z,12.94
2018-05-06T01:25:54.922Z,12.94
2018-05-06T01:26:55.471Z,12.98
2018-05-06T01:27:56.014Z,12.93
2018-05-06T01:28:56.564Z,12.90
2018-05-06T01:29:57.114Z,12.86
2018-05-06T01:30:57.655Z,12.83
2018-05-06T01:31:58.203Z,12.83
2018-05-06T01:32:58.754Z,12.83
2018-05-06T01:33:59.294Z,12.80
2018-05-06T01:34:59.834Z,12.72
2018-05-06T01:36:00.385Z,12.71
2018-05-06T01:37:00.927Z,12.65
2018-05-06T01:38:01.476Z,12.68
2018-05-06T01:39:02.027Z,12.60
2018-05-06T01:40:02.578Z,12.68
2018-05-06T01:41:03.124Z,12.57
2018-05-06T01:42:03.680Z,12.58
2018-05-06T01:43:04.228Z,12.58
2018-05-06T01:44:04.772Z,12.49
2018-05-06T01:45:05.319Z,12.53
2018-05-06T01:46:05.884Z,12.47
2018-05-06T01:47:06.425Z,12.39
2018-05-06T01:48:06.971Z,12.29
2018-05-06T01:49:07.516Z,12.34
2018-05-06T01:50:08.065Z,12.29
2018-05-06T01:51:08.609Z,12.24
2018-05-06T01:52:09.157Z,12.28
2018-05-06T01:53:09.706Z,12.28
2018-05-06T01:54:10.251Z,12.37
2018-05-06T01:55:10.804Z,12.31
2018-05-06T01:56:11.351Z,12.28
2018-05-06T01:57:11.897Z,12.31
2018-05-06T01:58:12.445Z,12.27
2018-05-06T01:59:12.994Z,12.28
2018-05-06T02:00:13.544Z,12.31
2018-05-06T02:01:14.094Z,12.27
2018-05-06T02:02:14.636Z,12.16
2018-05-06T02:03:15.191Z,12.14
2018-05-06T02:04:15.732Z,12.22
2018-05-06T02:05:16.284Z,12.11
2018-05-06T02:06:16.835Z,12.01
2018-05-06T02:07:17.379Z,11.96
2018-05-06T02:08:17.931Z,11.93
2018-05-06T02:09:18.476Z,11.84
2018-05-06T02:10:19.019Z,11.83
2018-05-06T02:11:19.563Z,11.85
2018-05-06T02:12:20.112Z,11.83
2018-05-06T02:13:20.652Z,11.81
2018-05-06T02:14:21.203Z,11.84
2018-05-06T02:15:21.754Z,11.84
2018-05-06T02:16:22.301Z,11.75
2018-05-06T02:17:22.851Z,11.83
2018-05-06T02:18:23.400Z,11.84
2018-05-06T02:19:23.948Z,11.81
2018-05-06T02:20:24.497Z,11.73
2018-05-06T02:21:25.048Z,11.76
2018-05-06T02:22:25.617Z,11.66
2018-05-06T02:23:26.138Z,11.62
2018-05-06T02:24:26.677Z,11.63
2018-05-06T02:25:27.230Z,11.54
2018-05-06T02:26:27.777Z,11.48
2018-05-06T02:27:28.327Z,11.50
2018-05-06T02:28:28.875Z,11.42
2018-05-06T02:29:29.416Z,11.39
2018-05-06T02:30:29.962Z,11.39
2018-05-06T02:31:30.510Z,11.45
2018-05-06T02:32:31.059Z,11.45
2018-05-06T02:33:31.604Z,11.48
2018-05-06T02:34:32.148Z,11.33
2018-05-06T02:35:32.698Z,11.42
2018-05-06T02:36:33.242Z,11.24
2018-05-06T02:37:33.787Z,11.27
2018-05-06T02:38:34.337Z,11.22
2018-05-06T02:39:34.886Z,11.15
2018-05-06T02:40:35.437Z,11.21
2018-05-06T02:41:35.983Z,11.19
2018-05-06T02:42:36.541Z,11.12
2018-05-06T02:43:37.071Z,11.21
2018-05-06T02:44:37.620Z,11.12
2018-05-06T02:45:38.156Z,11.08
2018-05-06T02:46:38.704Z,11.11
2018-05-06T02:47:39.251Z,11.07
2018-05-06T02:48:39.800Z,11.07
2018-05-06T02:49:40.346Z,11.07
2018-05-06T02:50:40.893Z,11.09
2018-05-06T02:51:41.440Z,10.99
2018-05-06T02:52:41.977Z,11.01
2018-05-06T02:53:42.529Z,11.07
2018-05-06T02:54:43.079Z,11.01
2018-05-06T02:55:43.626Z,11.00
2018-05-06T02:56:44.175Z,10.96
2018-05-06T02:57:44.730Z,11.03
2018-05-06T02:58:45.272Z,10.99
2018-05-06T02:59:45.817Z,10.99
2018-05-06T03:00:46.367Z,11.04
2018-05-06T03:01:46.916Z,11.08
2018-05-06T03:02:47.462Z,11.07
2018-05-06T03:03:48.013Z,11.14
2018-05-06T03:04:48.557Z,11.16
2018-05-06T03:05:49.107Z,11.24
2018-05-06T03:06:49.703Z,11.21
2018-05-06T03:07:50.202Z,11.16
2018-05-06T03:08:50.751Z,11.24
2018-05-06T03:09:51.301Z,11.26
2018-05-06T03:10:51.844Z,11.27
2018-05-06T03:11:52.392Z,11.30
2018-05-06T03:12:52.947Z,11.26
2018-05-06T03:13:53.489Z,11.29
2018-05-06T03:14:54.037Z,11.29
2018-05-06T03:15:54.583Z,11.36
2018-05-06T03:16:55.132Z,11.30
2018-05-06T03:17:55.673Z,11.32
2018-05-06T03:18:56.221Z,11.36
2018-05-06T03:19:56.769Z,11.34
2018-05-06T03:20:57.320Z,11.30
2018-05-06T03:21:57.867Z,11.44
2018-05-06T03:22:58.411Z,11.40
2018-05-06T03:23:58.961Z,11.36
2018-05-06T03:24:59.510Z,11.29
2018-05-06T03:26:00.059Z,11.29
2018-05-06T03:27:00.601Z,11.29
2018-05-06T03:28:01.143Z,11.19
2018-05-06T03:29:01.692Z,11.15
2018-05-06T03:30:02.236Z,11.18
2018-05-06T03:31:02.784Z,11.19
2018-05-06T03:32:03.331Z,11.18
2018-05-06T03:33:03.877Z,11.21
2018-05-06T03:34:04.425Z,11.18
2018-05-06T03:35:04.974Z,11.11
2018-05-06T03:36:05.523Z,10.99
2018-05-06T03:37:06.068Z,11.08
2018-05-06T03:38:06.616Z,10.96
2018-05-06T03:39:07.160Z,10.81
2018-05-06T03:40:07.708Z,10.83
2018-05-06T03:41:08.257Z,10.85
2018-05-06T03:42:08.807Z,10.83
2018-05-06T03:43:09.349Z,10.82
2018-05-06T03:44:09.900Z,10.78
2018-05-06T03:45:10.444Z,10.83
2018-05-06T03:46:10.993Z,10.82
2018-05-06T03:47:11.536Z,10.90
2018-05-06T03:48:12.085Z,10.85
2018-05-06T03:49:12.628Z,10.83
2018-05-06T03:50:13.178Z,10.91
2018-05-06T03:51:13.802Z,10.75
2018-05-06T03:52:14.325Z,10.76
2018-05-06T03:53:14.872Z,10.79
2018-05-06T03:54:15.419Z,10.75
2018-05-06T03:55:15.975Z,10.81
2018-05-06T03:56:16.515Z,10.85
2018-05-06T03:57:17.063Z,10.83
2018-05-06T03:58:17.617Z,10.89
2018-05-06T03:59:18.165Z,10.83
2018-05-06T04:00:18.773Z,10.81
2018-05-06T04:01:19.261Z,10.85
2018-05-06T04:02:19.806Z,10.82
2018-05-06T04:03:20.355Z,10.74
2018-05-06T04:04:20.908Z,10.85
2018-05-06T04:05:21.460Z,10.74
2018-05-06T04:06:22.010Z,10.78
2018-05-06T04:07:22.556Z,10.89
2018-05-06T04:08:23.103Z,10.74
2018-05-06T04:09:23.655Z,10.79
2018-05-06T04:10:25.191Z,10.78
2018-05-06T04:11:25.737Z,10.83
2018-05-06T04:12:26.290Z,10.75
2018-05-06T04:13:26.842Z,10.89
2018-05-06T04:14:27.391Z,10.78
2018-05-06T04:15:27.936Z,10.78
2018-05-06T04:16:28.490Z,10.91
2018-05-06T04:17:29.041Z,10.85
2018-05-06T04:18:29.592Z,10.87
2018-05-06T04:19:30.141Z,10.76
2018-05-06T04:20:30.694Z,10.89
2018-05-06T04:21:31.269Z,10.87
2018-05-06T04:22:31.800Z,10.85
2018-05-06T04:23:32.353Z,10.78
2018-05-06T04:24:32.908Z,10.90
2018-05-06T04:25:33.455Z,10.90
2018-05-06T04:26:34.008Z,10.90
2018-05-06T04:27:34.557Z,10.93
2018-05-06T04:28:35.112Z,10.89
2018-05-06T04:29:35.665Z,11.00
2018-05-06T04:30:36.212Z,10.93
2018-05-06T04:31:36.760Z,10.97
2018-05-06T04:32:37.315Z,10.94
2018-05-06T04:33:37.875Z,10.97
2018-05-06T04:34:38.418Z,10.97
2018-05-06T04:35:38.972Z,11.00
2018-05-06T04:36:39.528Z,11.01
2018-05-06T04:37:40.075Z,11.07
2018-05-06T04:38:40.623Z,11.14
2018-05-06T04:39:41.175Z,11.19
2018-05-06T04:40:41.728Z,11.22
2018-05-06T04:41:42.282Z,11.24
2018-05-06T04:42:42.842Z,11.29
2018-05-06T04:43:43.394Z,11.36
2018-05-06T04:44:43.943Z,11.42
2018-05-06T04:45:44.500Z,11.69
2018-05-06T04:46:45.049Z,11.96
2018-05-06T04:47:45.599Z,12.40
2018-05-06T04:48:46.150Z,12.72
2018-05-06T04:49:46.705Z,12.94
2018-05-06T04:50:47.255Z,13.01
2018-05-06T04:51:47.812Z,13.05
2018-05-06T04:52:48.372Z,13.12
2018-05-06T04:53:48.920Z,13.04
2018-05-06T04:54:49.471Z,13.16
2018-05-06T04:55:50.026Z,13.16
2018-05-06T04:56:50.584Z,13.22
2018-05-06T04:57:51.141Z,13.22
2018-05-06T04:58:51.693Z,13.35
2018-05-06T04:59:52.251Z,13.57
2018-05-06T05:00:52.823Z,13.78
2018-05-06T05:01:53.366Z,14.26
2018-05-06T05:02:53.925Z,14.81
2018-05-06T05:03:54.483Z,15.07
2018-05-06T05:04:55.044Z,15.36
2018-05-06T05:05:55.603Z,15.69
2018-05-06T05:06:56.162Z,16.24
2018-05-06T05:07:56.752Z,16.68
2018-05-06T05:08:57.273Z,16.96
2018-05-06T05:09:57.833Z,17.37
2018-05-06T05:10:58.394Z,17.49
2018-05-06T05:11:58.951Z,17.44
2018-05-06T05:12:59.506Z,17.45
2018-05-06T05:14:00.070Z,17.48
2018-05-06T05:15:00.630Z,17.71
2018-05-06T05:16:01.192Z,18.16
2018-05-06T05:17:01.756Z,18.59
2018-05-06T05:18:02.317Z,18.95
2018-05-06T05:19:02.880Z,18.83
2018-05-06T05:20:03.442Z,18.37
2018-05-06T05:21:04.002Z,17.75
2018-05-06T05:22:04.569Z,17.31
2018-05-06T05:23:05.131Z,17.05
2018-05-06T05:24:05.696Z,17.05
2018-05-06T05:25:06.251Z,17.52
2018-05-06T05:26:06.867Z,17.97
2018-05-06T05:27:07.421Z,18.59
2018-05-06T05:28:08.000Z,18.68
2018-05-06T05:29:08.541Z,18.93
2018-05-06T05:30:09.104Z,19.11
2018-05-06T05:31:09.673Z,19.12
2018-05-06T05:32:10.235Z,19.22
2018-05-06T05:33:10.800Z,19.41
2018-05-06T05:34:11.361Z,19.67
2018-05-06T05:35:11.926Z,19.74
2018-05-06T05:36:12.494Z,19.84
2018-05-06T05:37:13.051Z,20.09
2018-05-06T05:38:13.604Z,19.87
2018-05-06T05:39:14.162Z,19.64
2018-05-06T05:40:14.727Z,19.25
2018-05-06T05:41:15.297Z,18.74
2018-05-06T05:42:15.858Z,18.80
2018-05-06T05:43:16.425Z,19.14
2018-05-06T05:44:16.990Z,19.30
2018-05-06T05:45:17.558Z,19.44
2018-05-06T05:46:18.128Z,19.80
2018-05-06T05:47:18.691Z,19.99
2018-05-06T05:48:19.261Z,20.25
2018-05-06T05:49:19.824Z,20.13
2018-05-06T05:50:20.387Z,19.84
2018-05-06T05:51:20.971Z,19.79
2018-05-06T05:52:21.528Z,19.44
2018-05-06T05:53:22.094Z,19.29
2018-05-06T05:54:22.669Z,19.37
2018-05-06T05:55:23.228Z,20.14
2018-05-06T05:56:23.800Z,20.69
2018-05-06T05:57:24.370Z,20.95
2018-05-06T05:58:24.946Z,21.47
2018-05-06T05:59:25.517Z,21.89
2018-05-06T06:00:26.072Z,22.38
2018-05-06T06:01:26.670Z,22.50
2018-05-06T06:02:27.209Z,23.02
2018-05-06T06:03:27.780Z,23.43
2018-05-06T06:04:28.358Z,23.68
2018-05-06T06:05:28.920Z,23.72
2018-05-06T06:06:29.490Z,23.95
2018-05-06T06:07:30.055Z,24.24
2018-05-06T06:08:30.625Z,24.63
2018-05-06T06:09:31.197Z,24.80
2018-05-06T06:10:31.758Z,24.96
2018-05-06T06:11:32.328Z,25.01
2018-05-06T06:12:32.914Z,24.94
2018-05-06T06:13:33.476Z,25.01
2018-05-06T06:14:34.050Z,24.98
2018-05-06T06:15:34.693Z,24.69
2018-05-06T06:16:35.186Z,24.92
2018-05-06T06:17:35.761Z,24.98
2018-05-06T06:18:36.324Z,24.69
2018-05-06T06:19:36.904Z,24.32
2018-05-06T06:20:37.467Z,23.84
2018-05-06T06:21:38.046Z,23.94
2018-05-06T06:22:38.624Z,23.68
2018-05-06T06:23:39.199Z,23.66
2018-05-06T06:24:39.879Z,23.53
2018-05-06T06:25:40.339Z,23.72
2018-05-06T06:26:40.907Z,23.87
2018-05-06T06:27:41.472Z,23.28
2018-05-06T06:28:42.042Z,23.35
2018-05-06T06:29:42.617Z,23.37
2018-05-06T06:30:43.187Z,23.50
2018-05-06T06:31:43.767Z,23.74
2018-05-06T06:32:44.339Z,24.05
2018-05-06T06:33:44.913Z,24.16
2018-05-06T06:34:45.483Z,24.17
2018-05-06T06:35:46.053Z,24.01
2018-05-06T06:36:46.622Z,24.01
2018-05-06T06:37:47.196Z,23.81
2018-05-06T06:38:47.771Z,23.47
2018-05-06T06:39:48.339Z,23.51
2018-05-06T06:40:48.903Z,23.72
2018-05-06T06:41:49.469Z,23.99
2018-05-06T06:42:50.034Z,24.09
2018-05-06T06:43:50.609Z,24.18
2018-05-06T06:44:51.176Z,23.91
2018-05-06T06:45:51.747Z,23.81
2018-05-06T06:46:52.320Z,23.81
2018-05-06T06:47:52.892Z,23.69
2018-05-06T06:48:53.466Z,23.62
2018-05-06T06:49:54.027Z,23.59
2018-05-06T06:50:54.600Z,23.61
2018-05-06T06:51:55.171Z,23.56
2018-05-06T06:52:55.743Z,23.53
2018-05-06T06:53:56.322Z,23.79
2018-05-06T06:54:56.893Z,23.71
2018-05-06T06:55:57.460Z,23.53
2018-05-06T06:56:58.040Z,23.49
2018-05-06T06:57:58.618Z,23.24
2018-05-06T06:58:59.175Z,23.23
2018-05-06T06:59:59.746Z,23.23
2018-05-06T07:01:00.317Z,23.23
2018-05-06T07:02:00.889Z,23.41
2018-05-06T07:03:01.465Z,23.43
2018-05-06T07:04:02.038Z,23.28
2018-05-06T07:05:02.605Z,23.43
2018-05-06T07:06:03.185Z,23.46
2018-05-06T07:07:03.754Z,23.44
2018-05-06T07:08:04.328Z,23.72
2018-05-06T07:09:04.901Z,23.62
2018-05-06T07:10:05.471Z,23.40
2018-05-06T07:11:06.045Z,22.97
2018-05-06T07:12:06.611Z,23.25
2018-05-06T07:13:07.182Z,23.25
2018-05-06T07:14:07.753Z,22.99
2018-05-06T07:15:08.320Z,23.16
2018-05-06T07:16:08.898Z,23.23
2018-05-06T07:17:09.465Z,23.34
2018-05-06T07:18:10.039Z,23.50
2018-05-06T07:19:10.668Z,23.46
2018-05-06T07:20:11.185Z,23.53
2018-05-06T07:21:11.755Z,23.58
2018-05-06T07:22:12.327Z,23.71
2018-05-06T07:23:12.904Z,23.74
2018-05-06T07:24:13.469Z,23.46
2018-05-06T07:25:14.040Z,23.37
2018-05-06T07:26:14.614Z,23.34
2018-05-06T07:27:15.182Z,23.23
2018-05-06T07:28:15.748Z,23.13
2018-05-06T07:29:16.321Z,23.13
2018-05-06T07:30:16.889Z,23.27
2018-05-06T07:31:17.452Z,23.27
2018-05-06T07:32:18.026Z,23.27
2018-05-06T07:33:18.599Z,23.40
2018-05-06T07:34:19.172Z,23.44
2018-05-06T07:35:19.741Z,23.58
2018-05-06T07:36:20.312Z,23.44
2018-05-06T07:37:20.882Z,23.41
2018-05-06T07:38:21.450Z,23.44
2018-05-06T07:39:22.017Z,23.53
2018-05-06T07:40:22.589Z,23.76
2018-05-06T07:41:23.157Z,23.98
2018-05-06T07:42:23.731Z,24.21
2018-05-06T07:43:24.298Z,24.21
2018-05-06T07:44:24.869Z,24.20
2018-05-06T07:45:25.437Z,24.14
2018-05-06T07:46:26.013Z,24.16
2018-05-06T07:47:26.581Z,24.17
2018-05-06T07:48:27.153Z,23.83
2018-05-06T07:49:27.736Z,23.76
2018-05-06T07:50:28.304Z,23.87
2018-05-06T07:51:28.864Z,23.76
2018-05-06T07:52:29.437Z,23.74
2018-05-06T07:53:30.008Z,23.76
2018-05-06T07:54:30.582Z,23.69
2018-05-06T07:55:31.148Z,23.81
2018-05-06T07:56:31.732Z,23.61
2018-05-06T07:57:32.295Z,23.74
2018-05-06T07:58:32.861Z,23.94
2018-05-06T07:59:33.434Z,24.11
2018-05-06T08:00:34.008Z,24.45
2018-05-06T08:01:34.578Z,24.58
2018-05-06T08:02:35.150Z,24.60
2018-05-06T08:03:35.721Z,24.79
2018-05-06T08:04:36.292Z,25.02
2018-05-06T08:05:36.864Z,25.02
2018-05-06T08:06:37.432Z,24.94
2018-05-06T08:07:38.003Z,24.80
2018-05-06T08:08:38.574Z,24.63
2018-05-06T08:09:39.148Z,24.69
2018-05-06T08:10:39.720Z,24.69
2018-05-06T08:11:40.290Z,24.45
2018-05-06T08:12:40.865Z,24.43
2018-05-06T08:13:41.436Z,24.14
2018-05-06T08:14:42.006Z,24.14
2018-05-06T08:15:42.581Z,24.41
2018-05-06T08:16:43.145Z,24.35
2018-05-06T08:17:43.716Z,24.64
2018-05-06T08:18:44.293Z,24.83
2018-05-06T08:19:44.866Z,24.77
2018-05-06T08:20:45.432Z,24.99
2018-05-06T08:21:46.047Z,24.81
2018-05-06T08:22:46.566Z,24.79
2018-05-06T08:23:47.139Z,24.41
2018-05-06T08:24:47.712Z,24.56
2018-05-06T08:25:48.285Z,24.56
2018-05-06T08:26:48.858Z,24.56
2018-05-06T08:27:49.427Z,24.58
2018-05-06T08:28:49.995Z,24.88
2018-05-06T08:29:50.572Z,24.70
2018-05-06T08:30:51.136Z,24.95
2018-05-06T08:31:51.729Z,25.09
2018-05-06T08:32:52.280Z,25.47
2018-05-06T08:33:52.852Z,25.63
2018-05-06T08:34:53.420Z,25.72
2018-05-06T08:35:53.992Z,25.63
2018-05-06T08:36:54.561Z,25.94
2018-05-06T08:37:55.136Z,26.62
2018-05-06T08:38:55.709Z,26.76
2018-05-06T08:39:56.283Z,26.76
2018-05-06T08:40:56.853Z,27.03
2018-05-06T08:41:57.423Z,26.88
2018-05-06T08:42:57.992Z,26.81
2018-05-06T08:43:58.559Z,26.80
2018-05-06T08:44:59.133Z,26.76
2018-05-06T08:45:59.694Z,26.83
2018-05-06T08:47:00.266Z,26.98
2018-05-06T08:48:00.872Z,26.98
2018-05-06T08:49:01.426Z,27.00
2018-05-06T08:50:02.010Z,27.05
2018-05-06T08:51:02.572Z,27.17
2018-05-06T08:52:03.144Z,27.28
2018-05-06T08:53:03.713Z,27.23
2018-05-06T08:54:04.291Z,26.98
2018-05-06T08:55:04.856Z,27.20
2018-05-06T08:56:05.430Z,26.96
2018-05-06T08:57:05.998Z,26.61
2018-05-06T08:58:06.571Z,26.16
2018-05-06T08:59:07.139Z,26.37
2018-05-06T09:00:07.712Z,26.62
2018-05-06T09:01:08.282Z,26.59
2018-05-06T09:02:08.848Z,26.91
2018-05-06T09:03:09.421Z,26.66
2018-05-06T09:04:09.989Z,26.98
2018-05-06T09:05:10.557Z,27.02
2018-05-06T09:06:11.131Z,26.92
2018-05-06T09:07:11.701Z,26.87
2018-05-06T09:08:12.270Z,26.65
2018-05-06T09:09:12.840Z,26.74
2018-05-06T09:10:13.415Z,27.02
2018-05-06T09:11:14.022Z,26.71
2018-05-06T09:12:14.567Z,26.98
2018-05-06T09:13:15.130Z,27.13
2018-05-06T09:14:15.701Z,26.91
2018-05-06T09:15:16.274Z,26.76
2018-05-06T09:16:16.835Z,26.61
2018-05-06T09:17:17.405Z,26.88
2018-05-06T09:18:17.981Z,26.61
2018-05-06T09:19:18.553Z,26.74
2018-05-06T09:20:19.121Z,26.78
2018-05-06T09:21:19.691Z,27.00
2018-05-06T09:22:20.265Z,26.87
2018-05-06T09:23:20.837Z,26.85
2018-05-06T09:24:21.407Z,26.99
2018-05-06T09:25:22.066Z,27.24
2018-05-06T09:26:22.544Z,27.18
2018-05-06T09:27:23.113Z,27.28
2018-05-06T09:28:23.682Z,27.47
2018-05-06T09:29:24.255Z,27.35
2018-05-06T09:30:24.825Z,27.43
2018-05-06T09:31:25.398Z,27.68
2018-05-06T09:32:26.037Z,27.52
2018-05-06T09:33:26.538Z,27.45
2018-05-06T09:34:27.109Z,27.45
2018-05-06T09:35:27.680Z,27.76
2018-05-06T09:36:28.262Z,27.96
2018-05-06T09:37:28.815Z,28.26
2018-05-06T09:38:29.388Z,28.32
2018-05-06T09:39:29.961Z,28.26
2018-05-06T09:40:30.535Z,28.03
2018-05-06T09:41:31.109Z,28.11
2018-05-06T09:42:31.676Z,28.27
2018-05-06T09:43:32.247Z,28.23
2018-05-06T09:44:32.813Z,28.23
2018-05-06T09:45:33.387Z,27.99
2018-05-06T09:46:33.956Z,27.63
2018-05-06T09:47:34.597Z,27.86
2018-05-06T09:48:35.096Z,28.15
2018-05-06T09:49:35.664Z,28.18
2018-05-06T09:50:36.234Z,27.90
2018-05-06T09:51:36.807Z,27.74
2018-05-06T09:52:37.379Z,27.78
2018-05-06T09:53:37.954Z,27.86
2018-05-06T09:54:38.520Z,28.10
2018-05-06T09:55:39.090Z,28.07
2018-05-06T09:56:39.663Z,27.83
2018-05-06T09:57:40.235Z,27.67
2018-05-06T09:58:40.805Z,27.67
2018-05-06T09:59:41.370Z,27.67
2018-05-06T10:00:41.939Z,27.59
2018-05-06T10:01:42.508Z,27.61
2018-05-06T10:02:43.083Z,27.51
2018-05-06T10:03:43.654Z,27.52
2018-05-06T10:04:44.225Z,27.45
2018-05-06T10:05:44.798Z,27.42
2018-05-06T10:06:45.375Z,27.43
2018-05-06T10:07:45.948Z,27.45
2018-05-06T10:08:46.521Z,27.36
2018-05-06T10:09:47.095Z,27.51
2018-05-06T10:10:47.665Z,27.51
2018-05-06T10:11:48.235Z,27.48
2018-05-06T10:12:48.811Z,27.66
2018-05-06T10:13:49.378Z,27.45
2018-05-06T10:14:49.949Z,27.52
2018-05-06T10:15:50.534Z,27.61
2018-05-06T10:16:51.090Z,27.68
2018-05-06T10:17:51.659Z,27.61
2018-05-06T10:18:52.237Z,27.50
2018-05-06T10:19:52.803Z,27.45
2018-05-06T10:20:53.369Z,27.39
2018-05-06T10:21:53.932Z,27.23
2018-05-06T10:22:54.506Z,27.33
2018-05-06T10:23:55.076Z,27.29
2018-05-06T10:24:55.639Z,27.45
2018-05-06T10:25:56.210Z,27.30
2018-05-06T10:26:56.785Z,27.42
2018-05-06T10:27:57.355Z,27.63
2018-05-06T10:28:57.921Z,27.67
2018-05-06T10:29:58.493Z,27.70
2018-05-06T10:30:59.067Z,27.63
2018-05-06T10:31:59.636Z,27.68
2018-05-06T10:33:00.205Z,27.81
2018-05-06T10:34:00.778Z,27.80
2018-05-06T10:35:01.356Z,27.96
2018-05-06T10:36:01.929Z,28.10
2018-05-06T10:37:02.498Z,28.08
2018-05-06T10:38:03.068Z,28.03
2018-05-06T10:39:03.639Z,28.27
2018-05-06T10:40:04.209Z,28.36
2018-05-06T10:41:04.781Z,28.50
2018-05-06T10:42:05.353Z,28.65
2018-05-06T10:43:05.928Z,28.59
2018-05-06T10:44:06.541Z,28.22
2018-05-06T10:45:07.072Z,28.18
2018-05-06T10:46:07.645Z,28.25
2018-05-06T10:47:08.265Z,28.26
2018-05-06T10:48:08.788Z,28.32
2018-05-06T10:49:09.432Z,28.60
2018-05-06T10:50:09.921Z,29.08
2018-05-06T10:51:10.485Z,29.01
2018-05-06T10:52:11.065Z,28.84
2018-05-06T10:53:11.634Z,29.10
2018-05-06T10:54:12.203Z,29.17
2018-05-06T10:55:12.774Z,29.10
2018-05-06T10:56:13.350Z,29.00
2018-05-06T10:57:13.913Z,28.79
2018-05-06T10:58:14.489Z,28.92
2018-05-06T10:59:15.063Z,29.08
2018-05-06T11:00:15.633Z,28.77
2018-05-06T11:01:16.205Z,28.82
2018-05-06T11:02:16.777Z,28.63
2018-05-06T11:03:17.347Z,28.69
2018-05-06T11:04:17.928Z,28.75
2018-05-06T11:05:18.491Z,28.75
2018-05-06T11:06:19.065Z,28.81
2018-05-06T11:07:19.636Z,29.00
2018-05-06T11:08:20.202Z,29.10
2018-05-06T11:09:20.773Z,29.16
2018-05-06T11:10:21.443Z,29.04
2018-05-06T11:11:21.916Z,29.15
2018-05-06T11:12:22.485Z,29.38
2018-05-06T11:13:23.061Z,29.27
2018-05-06T11:14:23.646Z,29.42
2018-05-06T11:15:24.207Z,29.53
2018-05-06T11:16:24.780Z,29.34
2018-05-06T11:17:25.352Z,29.23
2018-05-06T11:18:25.926Z,29.19
2018-05-06T11:19:26.496Z,29.38
2018-05-06T11:20:27.067Z,29.29
2018-05-06T11:21:27.646Z,29.62
2018-05-06T11:22:28.208Z,29.64
2018-05-06T11:23:28.774Z,29.39
2018-05-06T11:24:29.347Z,29.54
2018-05-06T11:25:29.919Z,29.64
2018-05-06T11:26:30.492Z,29.81
2018-05-06T11:27:31.063Z,29.90
2018-05-06T11:28:31.631Z,30.03
2018-05-06T11:29:32.201Z,30.33
2018-05-06T11:30:32.775Z,30.40
2018-05-06T11:31:33.345Z,30.64
2018-05-06T11:32:33.916Z,30.56
2018-05-06T11:33:34.483Z,30.60
2018-05-06T11:34:35.062Z,30.72
2018-05-06T11:35:35.640Z,30.81
2018-05-06T11:36:36.199Z,30.71
2018-05-06T11:37:36.769Z,30.56
2018-05-06T11:38:37.332Z,30.56
2018-05-06T11:39:37.911Z,30.65
2018-05-06T11:40:38.481Z,30.76
2018-05-06T11:41:39.053Z,30.56
2018-05-06T11:42:39.623Z,30.71
2018-05-06T11:43:40.189Z,30.65
2018-05-06T11:44:40.760Z,30.83
2018-05-06T11:45:41.333Z,30.86
2018-05-06T11:46:41.904Z,31.06
2018-05-06T11:47:42.495Z,31.30
2018-05-06T11:48:43.059Z,31.28
2018-05-06T11:49:43.631Z,31.28
2018-05-06T11:50:44.205Z,31.27
2018-05-06T11:51:44.774Z,31.09
2018-05-06T11:52:45.347Z,31.27
2018-05-06T11:53:45.928Z,31.37
2018-05-06T11:54:46.507Z,31.74
2018-05-06T11:55:47.084Z,32.02
2018-05-06T11:56:47.651Z,32.03
2018-05-06T11:57:48.296Z,31.97
2018-05-06T11:58:48.843Z,31.60
2018-05-06T11:59:49.411Z,31.84
2018-05-06T12:00:49.980Z,31.97
2018-05-06T12:01:50.563Z,32.06
2018-05-06T12:02:51.158Z,32.15
2018-05-06T12:03:51.731Z,31.99
2018-05-06T12:04:52.358Z,32.07
2018-05-06T12:05:52.902Z,31.90
2018-05-06T12:06:53.471Z,31.97
2018-05-06T12:07:54.043Z,32.18
2018-05-06T12:08:54.617Z,32.25
2018-05-06T12:09:55.224Z,32.40
2018-05-06T12:10:55.760Z,32.43
2018-05-06T12:11:56.331Z,32.51
2018-05-06T12:12:56.895Z,32.61
2018-05-06T12:13:57.469Z,32.59
2018-05-06T12:14:58.078Z,32.66
2018-05-06T12:15:58.687Z,32.88
2018-05-06T12:16:59.229Z,32.88
2018-05-06T12:17:59.797Z,32.74
2018-05-06T12:19:00.364Z,32.66
2018-05-06T12:20:00.939Z,32.36
2018-05-06T12:21:01.504Z,32.22
2018-05-06T12:22:02.074Z,32.06
2018-05-06T12:23:02.648Z,32.27
2018-05-06T12:24:03.296Z,32.49
2018-05-06T12:25:03.786Z,32.62
2018-05-06T12:26:04.356Z,32.99
2018-05-06T12:27:04.931Z,33.31
2018-05-06T12:28:05.506Z,32.83
2018-05-06T12:29:06.089Z,32.67
2018-05-06T12:30:06.650Z,32.12
2018-05-06T12:31:07.218Z,32.15
2018-05-06T12:32:07.789Z,32.36
2018-05-06T12:33:08.357Z,32.36
2018-05-06T12:34:08.922Z,32.48
2018-05-06T12:35:09.496Z,32.59
2018-05-06T12:36:10.074Z,32.96
2018-05-06T12:37:10.644Z,33.05
2018-05-06T12:38:11.214Z,33.26
2018-05-06T12:39:11.789Z,33.45
2018-05-06T12:40:12.357Z,33.30
2018-05-06T12:41:12.926Z,33.45
2018-05-06T12:42:13.491Z,33.45
2018-05-06T12:43:14.116Z,33.37
2018-05-06T12:44:14.634Z,33.85
2018-05-06T12:45:15.204Z,34.19
2018-05-06T12:46:15.774Z,33.67
2018-05-06T12:47:16.354Z,33.85
2018-05-06T12:48:16.914Z,33.67
2018-05-06T12:49:17.510Z,33.41
2018-05-06T12:50:18.081Z,33.41
2018-05-06T12:51:18.655Z,33.56
2018-05-06T12:52:19.234Z,33.43
2018-05-06T12:53:19.803Z,33.33
2018-05-06T12:54:20.418Z,33.38
2018-05-06T12:55:20.951Z,33.76
2018-05-06T12:56:21.517Z,33.67
2018-05-06T12:57:22.087Z,33.77
2018-05-06T12:58:22.653Z,34.01
2018-05-06T12:59:23.223Z,34.09